createdAt,value
2018-10-12T00:00:17.155Z,99.90
2018-10-12T00:02:45.639Z,99.90
2018-10-12T00:05:14.183Z,99.90
2018-10-12T00:07:43.290Z,99.90
2018-10-12T00:10:12.104Z,99.90
2018-10-12T00:12:41.095Z,99.90
2018-10-12T00:15:10.296Z,99.90
2018-10-12T00:17:38.783Z,99.90
2018-10-12T00:20:07.968Z,99.90
2018-10-12T00:22:36.478Z,99.90
2018-10-12T00:25:05.441Z,99.90
2018-10-12T00:27:34.153Z,99.90
2018-10-12T00:30:02.680Z,99.90
2018-10-12T00:32:31.199Z,99.90
2018-10-12T00:34:59.726Z,99.90
2018-10-12T00:37:28.254Z,99.90
2018-10-12T00:39:56.751Z,99.90
2018-10-12T00:42:25.236Z,99.90
2018-10-12T00:44:53.770Z,99.90
2018-10-12T00:47:22.282Z,99.90
2018-10-12T00:49:50.863Z,99.90
2018-10-12T00:52:19.373Z,99.90
2018-10-12T00:54:47.900Z,99.90
2018-10-12T00:57:16.416Z,99.90
2018-10-12T00:59:45.048Z,99.90
2018-10-12T01:02:13.666Z,99.90
2018-10-12T01:04:42.164Z,99.90
2018-10-12T01:07:10.758Z,99.90
2018-10-12T01:09:39.297Z,99.90
2018-10-12T01:12:40.144Z,99.90
2018-10-12T01:15:08.796Z,99.90
2018-10-12T01:17:37.880Z,99.90
2018-10-12T01:20:07.183Z,99.90
2018-10-12T01:22:35.828Z,99.90
2018-10-12T01:25:05.206Z,99.90
2018-10-12T01:27:34.160Z,99.90
2018-10-12T01:30:03.592Z,99.90
2018-10-12T01:32:37.353Z,99.90
2018-10-12T01:35:05.910Z,99.90
2018-10-12T01:37:34.478Z,99.90
2018-10-12T01:40:03.078Z,99.90
2018-10-12T01:42:31.584Z,99.90
2018-10-12T01:45:00.148Z,99.90
2018-10-12T01:47:28.792Z,99.90
2018-10-12T01:49:57.377Z,99.90
2018-10-12T01:52:25.936Z,99.90
2018-10-12T01:54:54.458Z,99.90
2018-10-12T01:57:23.012Z,99.90
2018-10-12T01:59:51.571Z,99.90
2018-10-12T02:02:20.099Z,99.90
2018-10-12T02:04:48.610Z,99.90
2018-10-12T02:07:17.195Z,99.90
2018-10-12T02:09:45.707Z,99.90
2018-10-12T02:12:14.242Z,99.90
2018-10-12T02:14:42.764Z,99.90
2018-10-12T02:17:11.299Z,99.90
2018-10-12T02:19:39.830Z,99.90
2018-10-12T02:22:08.368Z,99.90
2018-10-12T02:24:36.913Z,99.90
2018-10-12T02:27:05.464Z,99.90
2018-10-12T02:29:33.963Z,99.90
2018-10-12T02:32:02.505Z,99.90
2018-10-12T02:34:31.064Z,99.90
2018-10-12T02:36:59.818Z,99.90
2018-10-12T02:39:28.352Z,99.90
2018-10-12T02:41:56.817Z,99.90
2018-10-12T02:44:25.355Z,99.90
2018-10-12T02:46:53.877Z,99.90
2018-10-12T02:49:22.372Z,99.90
2018-10-12T02:51:50.880Z,99.90
2018-10-12T02:54:19.429Z,99.90
2018-10-12T02:56:47.970Z,99.90
2018-10-12T02:59:16.489Z,99.90
2018-10-12T03:01:45.032Z,99.90
2018-10-12T03:04:13.560Z,99.90
2018-10-12T03:06:42.112Z,99.90
2018-10-12T03:09:11.673Z,99.90
2018-10-12T03:11:40.568Z,99.90
2018-10-12T03:14:09.063Z,99.90
2018-10-12T03:16:37.584Z,99.90
2018-10-12T03:19:06.137Z,99.90
2018-10-12T03:21:34.645Z,99.90
2018-10-12T03:24:03.290Z,99.90
2018-10-12T03:26:31.806Z,99.90
2018-10-12T03:29:00.339Z,99.90
2018-10-12T03:31:28.865Z,99.90
2018-10-12T03:33:57.456Z,99.90
2018-10-12T03:36:26.760Z,99.90
2018-10-12T03:38:55.340Z,99.90
2018-10-12T03:41:23.921Z,99.90
2018-10-12T03:43:52.410Z,99.90
2018-10-12T03:46:22.111Z,99.90
2018-10-12T03:48:50.605Z,99.90
2018-10-12T03:51:19.137Z,99.90
2018-10-12T03:53:47.676Z,99.90
2018-10-12T03:56:16.255Z,99.90
2018-10-12T03:58:44.771Z,99.90
2018-10-12T04:01:13.317Z,99.90
2018-10-12T04:03:41.840Z,99.90
2018-10-12T04:06:10.340Z,99.90
2018-10-12T04:08:38.872Z,99.90
2018-10-12T04:11:07.542Z,99.90
2018-10-12T04:13:36.071Z,99.90
2018-10-12T04:16:04.640Z,99.90
2018-10-12T04:18:33.141Z,99.90
2018-10-12T04:21:01.611Z,99.90
2018-10-12T04:23:30.115Z,99.90
2018-10-12T04:25:58.625Z,99.90
2018-10-12T04:28:27.307Z,99.90
2018-10-12T04:30:55.834Z,99.90
2018-10-12T04:33:24.341Z,99.90
2018-10-12T04:35:52.871Z,99.90
2018-10-12T04:38:21.447Z,99.90
2018-10-12T04:41:04.788Z,99.90
2018-10-12T04:43:33.628Z,99.90
2018-10-12T04:46:03.970Z,99.90
2018-10-12T04:48:32.780Z,99.90
2018-10-12T04:51:01.993Z,99.90
2018-10-12T04:53:30.600Z,99.90
2018-10-12T04:55:59.111Z,99.90
2018-10-12T04:58:27.939Z,99.90
2018-10-12T05:00:56.515Z,99.90
2018-10-12T05:03:25.079Z,99.90
2018-10-12T05:05:53.624Z,99.90
2018-10-12T05:08:22.158Z,99.90
2018-10-12T05:10:50.717Z,99.90
2018-10-12T05:13:19.235Z,99.90
2018-10-12T05:15:47.769Z,99.90
2018-10-12T05:18:16.264Z,99.90
2018-10-12T05:20:44.787Z,99.90
2018-10-12T05:23:13.327Z,99.90
2018-10-12T05:25:42.036Z,99.90
2018-10-12T05:28:10.522Z,99.90
2018-10-12T05:30:39.012Z,99.90
2018-10-12T05:33:07.684Z,99.90
2018-10-12T05:35:36.197Z,99.90
2018-10-12T05:38:05.133Z,99.90
2018-10-12T05:40:33.637Z,99.90
2018-10-12T05:43:02.195Z,99.90
2018-10-12T05:45:30.640Z,99.90
2018-10-12T05:48:10.368Z,99.90
2018-10-12T05:50:38.859Z,99.90
2018-10-12T05:53:07.503Z,99.90
2018-10-12T05:55:36.766Z,99.90
2018-10-12T05:58:05.772Z,99.90
2018-10-12T06:00:34.288Z,99.90
2018-10-12T06:03:02.792Z,99.90
2018-10-12T06:05:31.356Z,99.90
2018-10-12T06:07:59.929Z,99.90
2018-10-12T06:10:28.480Z,99.90
2018-10-12T06:12:57.057Z,99.90
2018-10-12T06:15:26.018Z,99.90
2018-10-12T06:17:54.500Z,99.90
2018-10-12T06:20:23.072Z,99.90
2018-10-12T06:22:51.604Z,99.90
2018-10-12T06:25:20.142Z,99.90
2018-10-12T06:27:48.645Z,99.90
2018-10-12T06:30:17.144Z,99.90
2018-10-12T06:32:45.704Z,99.90
2018-10-12T06:35:14.395Z,99.90
2018-10-12T06:37:42.944Z,99.90
2018-10-12T06:40:11.437Z,99.90
2018-10-12T06:42:39.940Z,99.90
2018-10-12T06:45:08.524Z,99.90
2018-10-12T06:47:37.023Z,97.70
2018-10-12T06:50:06.021Z,96.40
2018-10-12T06:52:34.668Z,96.20
2018-10-12T06:55:03.212Z,92.90
2018-10-12T06:57:31.763Z,86.00
2018-10-12T07:00:00.448Z,81.30
2018-10-12T07:02:28.954Z,75.60
2018-10-12T07:04:57.640Z,71.60
2018-10-12T07:07:26.184Z,70.70
2018-10-12T07:09:54.711Z,67.20
2018-10-12T07:12:23.264Z,65.00
2018-10-12T07:14:51.785Z,64.20
2018-10-12T07:17:20.461Z,61.70
2018-10-12T07:19:48.977Z,61.70
2018-10-12T07:22:17.526Z,59.00
2018-10-12T07:24:46.066Z,56.90
2018-10-12T07:27:14.573Z,55.90
2018-10-12T07:29:43.095Z,54.30
2018-10-12T07:32:11.588Z,54.30
2018-10-12T07:34:40.104Z,52.50
2018-10-12T07:37:08.614Z,49.00
2018-10-12T07:39:37.101Z,48.40
2018-10-12T07:42:05.635Z,47.20
2018-10-12T07:44:34.171Z,42.90
2018-10-12T07:47:02.709Z,44.30
2018-10-12T07:49:31.243Z,45.00
2018-10-12T07:51:59.744Z,45.00
2018-10-12T07:54:28.260Z,38.30
2018-10-12T07:57:00.956Z,40.40
2018-10-12T07:59:29.472Z,42.70
2018-10-12T08:01:57.988Z,36.70
2018-10-12T08:04:26.494Z,38.40
2018-10-12T08:06:55.029Z,39.60
2018-10-12T08:09:23.569Z,37.50
2018-10-12T08:11:52.091Z,36.40
2018-10-12T08:14:20.816Z,36.00
2018-10-12T08:16:49.151Z,34.90
2018-10-12T08:19:17.716Z,35.40
2018-10-12T08:21:46.270Z,36.10
2018-10-12T08:24:14.784Z,37.60
2018-10-12T08:26:43.317Z,39.20
2018-10-12T08:29:11.831Z,38.10
2018-10-12T08:31:40.412Z,38.50
2018-10-12T08:34:09.800Z,37.80
2018-10-12T08:36:38.546Z,38.60
2018-10-12T08:39:11.025Z,38.50
2018-10-12T08:41:39.915Z,38.60
2018-10-12T08:44:10.520Z,41.20
2018-10-12T08:46:39.056Z,40.40
2018-10-12T08:49:07.574Z,41.10
2018-10-12T08:51:36.300Z,42.50
2018-10-12T08:54:05.052Z,44.60
2018-10-12T08:56:33.609Z,44.50
2018-10-12T08:59:02.172Z,45.10
2018-10-12T09:01:30.700Z,43.80
2018-10-12T09:03:59.480Z,45.70
2018-10-12T09:06:28.060Z,46.00
2018-10-12T09:08:56.547Z,48.50
2018-10-12T09:11:25.104Z,47.00
2018-10-12T09:13:53.644Z,46.80
2018-10-12T09:16:22.245Z,48.00
2018-10-12T09:18:50.740Z,48.10
2018-10-12T09:21:19.271Z,46.90
2018-10-12T09:23:47.817Z,44.40
2018-10-12T09:26:16.349Z,42.10
2018-10-12T09:28:44.853Z,44.10
2018-10-12T09:31:13.365Z,44.30
2018-10-12T09:33:41.871Z,44.80
2018-10-12T09:36:10.413Z,45.10
2018-10-12T09:38:38.929Z,47.00
2018-10-12T09:41:07.466Z,47.20
2018-10-12T09:43:35.970Z,47.30
2018-10-12T09:46:04.519Z,47.40
2018-10-12T09:48:33.043Z,47.30
2018-10-12T09:51:01.583Z,46.20
2018-10-12T09:53:30.114Z,47.40
2018-10-12T09:55:58.720Z,46.20
2018-10-12T09:58:27.211Z,47.80
2018-10-12T10:01:01.366Z,48.40
2018-10-12T10:03:35.345Z,49.10
2018-10-12T10:06:04.532Z,49.90
2018-10-12T10:08:33.278Z,48.10
2018-10-12T10:11:01.582Z,47.30
2018-10-12T10:13:30.428Z,46.20
2018-10-12T10:15:59.536Z,48.40
2018-10-12T10:18:28.419Z,45.20
2018-10-12T10:20:56.972Z,46.40
2018-10-12T10:23:25.505Z,45.90
2018-10-12T10:25:54.005Z,47.40
2018-10-12T10:28:22.532Z,47.30
2018-10-12T10:30:51.007Z,46.40
2018-10-12T10:33:19.522Z,45.60
2018-10-12T10:35:48.039Z,45.90
2018-10-12T10:38:16.552Z,47.40
2018-10-12T10:40:45.074Z,47.70
2018-10-12T10:43:13.571Z,47.50
2018-10-12T10:45:42.100Z,49.60
2018-10-12T10:48:10.595Z,47.30
2018-10-12T10:50:39.153Z,47.30
2018-10-12T10:53:07.700Z,47.50
2018-10-12T10:55:36.212Z,46.90
2018-10-12T10:58:04.720Z,48.40
2018-10-12T11:00:33.224Z,48.30
2018-10-12T11:03:01.750Z,47.50
2018-10-12T11:05:30.255Z,47.00
2018-10-12T11:07:58.853Z,43.90
2018-10-12T11:10:27.340Z,43.60
2018-10-12T11:12:55.949Z,43.20
2018-10-12T11:15:24.727Z,42.60
2018-10-12T11:17:53.316Z,44.70
2018-10-12T11:20:21.819Z,43.30
2018-10-12T11:22:50.323Z,45.80
2018-10-12T11:25:18.839Z,44.50
2018-10-12T11:27:47.415Z,47.40
2018-10-12T11:30:16.016Z,45.80
2018-10-12T11:32:44.488Z,44.60
2018-10-12T11:35:12.999Z,46.00
2018-10-12T11:37:41.500Z,45.10
2018-10-12T11:40:10.031Z,44.30
2018-10-12T11:42:49.639Z,46.80
2018-10-12T11:45:18.161Z,49.40
2018-10-12T11:47:46.678Z,46.00
2018-10-12T11:50:15.171Z,48.00
2018-10-12T11:52:43.715Z,47.50
2018-10-12T11:55:12.239Z,47.50
2018-10-12T11:57:40.752Z,47.80
2018-10-12T12:00:09.361Z,45.80
2018-10-12T12:02:37.875Z,49.30
2018-10-12T12:05:06.627Z,49.10
2018-10-12T12:07:35.167Z,46.90
2018-10-12T12:10:03.747Z,48.70
2018-10-12T12:12:32.263Z,48.10
2018-10-12T12:15:00.751Z,46.80
2018-10-12T12:17:29.255Z,49.80
2018-10-12T12:19:57.801Z,48.60
2018-10-12T12:22:26.407Z,47.10
2018-10-12T12:24:54.935Z,48.70
2018-10-12T12:27:23.447Z,47.50
2018-10-12T12:29:51.946Z,45.40
2018-10-12T12:32:20.457Z,45.30
2018-10-12T12:34:49.032Z,44.30
2018-10-12T12:37:17.492Z,44.90
2018-10-12T12:39:45.972Z,45.80
2018-10-12T12:42:14.477Z,47.30
2018-10-12T12:44:43.067Z,49.10
2018-10-12T12:47:11.693Z,48.50
2018-10-12T12:49:40.180Z,46.20
2018-10-12T12:52:08.834Z,45.40
2018-10-12T12:54:37.342Z,44.60
2018-10-12T12:57:05.843Z,44.70
2018-10-12T12:59:34.359Z,46.10
2018-10-12T13:02:02.879Z,45.60
2018-10-12T13:04:31.369Z,44.10
2018-10-12T13:06:59.852Z,44.80
2018-10-12T13:09:28.369Z,45.40
2018-10-12T13:11:56.863Z,45.60
2018-10-12T13:14:25.372Z,46.60
2018-10-12T13:16:53.995Z,46.50
2018-10-12T13:19:22.618Z,44.10
2018-10-12T13:21:51.327Z,44.60
2018-10-12T13:24:19.843Z,46.30
2018-10-12T13:26:48.330Z,45.00
2018-10-12T13:29:16.818Z,44.70
2018-10-12T13:31:45.343Z,43.40
2018-10-12T13:34:13.828Z,44.80
2018-10-12T13:36:42.347Z,46.90
2018-10-12T13:39:12.289Z,46.40
2018-10-12T13:41:40.843Z,46.50
2018-10-12T13:44:10.040Z,46.30
2018-10-12T13:46:38.679Z,47.10
2018-10-12T13:49:07.512Z,47.60
2018-10-12T13:51:36.056Z,46.40
2018-10-12T13:54:04.652Z,46.10
2018-10-12T13:56:33.159Z,47.70
2018-10-12T13:59:01.688Z,48.00
2018-10-12T14:01:30.184Z,49.00
2018-10-12T14:03:58.699Z,47.70
2018-10-12T14:06:27.284Z,49.50
2018-10-12T14:08:55.768Z,49.50
2018-10-12T14:11:24.335Z,49.50
2018-10-12T14:13:52.835Z,49.40
2018-10-12T14:16:21.331Z,48.00
2018-10-12T14:18:49.934Z,46.70
2018-10-12T14:21:18.316Z,46.30
2018-10-12T14:23:46.816Z,46.20
2018-10-12T14:26:15.303Z,47.10
2018-10-12T14:28:43.816Z,46.60
2018-10-12T14:31:12.307Z,46.80
2018-10-12T14:33:40.791Z,45.10
2018-10-12T14:36:09.305Z,46.10
2018-10-12T14:38:37.812Z,45.50
2018-10-12T14:41:06.532Z,45.70
2018-10-12T14:43:35.009Z,46.50
2018-10-12T14:46:03.530Z,48.20
2018-10-12T14:48:32.031Z,47.80
2018-10-12T14:51:00.516Z,47.70
2018-10-12T14:53:29.070Z,48.10
2018-10-12T14:55:57.657Z,48.80
2018-10-12T14:58:26.178Z,49.90
2018-10-12T15:00:54.723Z,49.10
2018-10-12T15:03:23.232Z,49.30
2018-10-12T15:05:51.728Z,49.70
2018-10-12T15:08:20.219Z,49.90
2018-10-12T15:10:48.706Z,50.20
2018-10-12T15:13:17.211Z,50.40
2018-10-12T15:15:45.751Z,50.10
2018-10-12T15:18:14.239Z,51.10
2018-10-12T15:20:42.807Z,52.60
2018-10-12T15:23:11.264Z,52.60
2018-10-12T15:25:39.944Z,53.00
2018-10-12T15:28:08.379Z,53.40
2018-10-12T15:30:36.960Z,53.80
2018-10-12T15:33:05.472Z,54.60
2018-10-12T15:35:33.976Z,54.70
2018-10-12T15:38:02.508Z,54.20
2018-10-12T15:40:31.118Z,53.80
2018-10-12T15:42:59.766Z,54.20
2018-10-12T15:45:28.183Z,55.20
2018-10-12T15:47:56.725Z,55.80
2018-10-12T15:50:25.252Z,56.20
2018-10-12T15:52:53.836Z,57.90
2018-10-12T15:55:22.344Z,57.80
2018-10-12T15:57:50.871Z,58.20
2018-10-12T16:00:19.368Z,59.20
2018-10-12T16:02:47.853Z,59.10
2018-10-12T16:05:16.378Z,59.10
2018-10-12T16:07:44.927Z,60.00
2018-10-12T16:10:13.581Z,60.60
2018-10-12T16:12:42.128Z,60.70
2018-10-12T16:15:10.696Z,61.10
2018-10-12T16:17:39.221Z,63.50
2018-10-12T16:20:07.776Z,62.70
2018-10-12T16:22:36.323Z,63.00
2018-10-12T16:26:17.172Z,64.20
2018-10-12T16:28:45.684Z,64.90
2018-10-12T16:31:14.238Z,66.70
2018-10-12T16:33:42.724Z,67.30
2018-10-12T16:36:11.282Z,68.30
2018-10-12T16:38:39.822Z,69.70
2018-10-12T16:41:08.352Z,70.60
2018-10-12T16:43:36.873Z,72.20
2018-10-12T16:46:05.379Z,72.00
2018-10-12T16:48:33.926Z,74.60
2018-10-12T16:51:02.417Z,75.30
2018-10-12T16:53:30.948Z,76.60
2018-10-12T16:55:59.479Z,77.50
2018-10-12T16:58:28.004Z,79.30
2018-10-12T17:00:56.535Z,78.60
2018-10-12T17:03:25.043Z,81.30
2018-10-12T17:05:53.576Z,82.60
2018-10-12T17:08:22.092Z,84.20
2018-10-12T17:10:50.630Z,84.90
2018-10-12T17:13:19.143Z,85.80
2018-10-12T17:15:47.665Z,86.50
2018-10-12T17:18:16.436Z,87.80
2018-10-12T17:20:44.975Z,87.70
2018-10-12T17:23:13.471Z,88.30
2018-10-12T17:25:41.969Z,87.70
2018-10-12T17:28:10.488Z,88.20
2018-10-12T17:30:38.965Z,89.60
2018-10-12T17:33:07.485Z,89.70
2018-10-12T17:35:35.980Z,90.30
2018-10-12T17:38:04.522Z,90.90
2018-10-12T17:40:33.594Z,91.10
2018-10-12T17:43:02.245Z,91.60
2018-10-12T17:45:30.704Z,92.40
2018-10-12T17:47:59.223Z,92.70
2018-10-12T17:50:27.828Z,93.50
2018-10-12T17:52:56.323Z,93.70
2018-10-12T17:55:24.920Z,94.60
2018-10-12T17:57:53.415Z,94.90
2018-10-12T18:00:22.556Z,94.80
2018-10-12T18:02:51.161Z,94.80
2018-10-12T18:05:19.689Z,95.50
2018-10-12T18:07:48.235Z,95.80
2018-10-12T18:10:16.767Z,95.90
2018-10-12T18:12:45.811Z,96.50
2018-10-12T18:15:14.359Z,97.30
2018-10-12T18:17:42.886Z,97.40
2018-10-12T18:20:12.145Z,97.10
2018-10-12T18:22:40.663Z,97.60
2018-10-12T18:25:09.292Z,97.80
2018-10-12T18:27:37.843Z,98.20
2018-10-12T18:30:06.452Z,98.80
2018-10-12T18:32:34.980Z,99.30
2018-10-12T18:35:03.524Z,99.90
2018-10-12T18:37:32.110Z,99.90
2018-10-12T18:40:00.674Z,99.90
2018-10-12T18:42:29.176Z,99.90
2018-10-12T18:44:57.726Z,99.90
2018-10-12T18:47:26.231Z,99.90
2018-10-12T18:49:54.732Z,99.90
2018-10-12T18:52:23.248Z,99.90
2018-10-12T18:54:51.784Z,99.90
2018-10-12T18:57:20.300Z,99.90
2018-10-12T18:59:48.814Z,99.90
2018-10-12T19:02:17.335Z,99.90
2018-10-12T19:04:45.973Z,99.90
2018-10-12T19:07:14.384Z,99.90
2018-10-12T19:09:42.890Z,99.90
2018-10-12T19:12:11.408Z,99.90
2018-10-12T19:14:39.944Z,99.90
2018-10-12T19:17:08.452Z,99.90
2018-10-12T19:19:37.088Z,99.90
2018-10-12T19:22:05.540Z,99.90
2018-10-12T19:24:34.066Z,99.90
2018-10-12T19:27:02.580Z,99.90
2018-10-12T19:29:31.114Z,99.90
2018-10-12T19:31:59.651Z,99.90
2018-10-12T19:34:28.172Z,99.90
2018-10-12T19:36:56.688Z,99.90
2018-10-12T19:39:25.204Z,99.90
2018-10-12T19:41:54.775Z,99.90
2018-10-12T19:44:23.753Z,99.90
2018-10-12T19:46:52.263Z,99.90
2018-10-12T19:49:20.806Z,99.90
2018-10-12T19:51:49.318Z,99.90
2018-10-12T19:54:17.820Z,99.90
2018-10-12T19:56:46.356Z,99.90
2018-10-12T19:59:14.958Z,99.90
2018-10-12T20:01:43.484Z,99.90
2018-10-12T20:04:11.976Z,99.90
2018-10-12T20:06:40.460Z,99.90
2018-10-12T20:09:10.996Z,99.90
2018-10-12T20:11:39.811Z,99.90
2018-10-12T20:14:08.689Z,99.90
2018-10-12T20:16:37.240Z,99.90
2018-10-12T20:19:05.772Z,99.90
2018-10-12T20:21:34.304Z,99.90
2018-10-12T20:24:02.950Z,99.90
2018-10-12T20:26:31.464Z,99.90
2018-10-12T20:28:59.971Z,99.90
2018-10-12T20:31:28.551Z,99.90
2018-10-12T20:33:57.016Z,99.90
2018-10-12T20:36:25.557Z,99.90
2018-10-12T20:38:54.067Z,99.90
2018-10-12T20:41:22.612Z,99.90
2018-10-12T20:43:51.151Z,99.90
2018-10-12T20:46:19.720Z,99.90
2018-10-12T20:48:48.272Z,99.90
2018-10-12T20:51:16.816Z,99.90
2018-10-12T20:53:45.323Z,99.90
2018-10-12T20:56:13.842Z,99.90
2018-10-12T20:58:42.358Z,99.90
2018-10-12T21:01:10.837Z,99.90
2018-10-12T21:03:39.344Z,99.90
2018-10-12T21:06:08.365Z,99.90
2018-10-12T21:08:37.082Z,99.90
2018-10-12T21:11:05.700Z,99.90
2018-10-12T21:13:34.187Z,99.90
2018-10-12T21:16:02.691Z,99.90
2018-10-12T21:18:31.185Z,99.90
2018-10-12T21:20:59.797Z,99.90
2018-10-12T21:23:28.307Z,99.90
2018-10-12T21:25:56.816Z,99.90
2018-10-12T21:28:25.437Z,99.90
2018-10-12T21:30:53.859Z,99.90
2018-10-12T21:33:22.388Z,99.90
2018-10-12T21:35:50.933Z,99.90
2018-10-12T21:38:19.489Z,99.90
2018-10-12T21:40:50.856Z,99.90
2018-10-12T21:43:19.350Z,99.90
2018-10-12T21:45:47.856Z,99.90
2018-10-12T21:48:16.398Z,99.90
2018-10-12T21:50:44.909Z,99.90
2018-10-12T21:53:13.393Z,99.90
2018-10-12T21:55:41.927Z,99.90
2018-10-12T21:58:10.451Z,99.90
2018-10-12T22:00:39.003Z,99.90
2018-10-12T22:03:07.575Z,99.90
2018-10-12T22:05:36.089Z,99.90
2018-10-12T22:08:04.595Z,99.90
2018-10-12T22:10:33.135Z,99.90
2018-10-12T22:13:01.636Z,99.90
2018-10-12T22:15:30.168Z,99.90
2018-10-12T22:17:58.697Z,99.90
2018-10-12T22:20:27.219Z,99.90
2018-10-12T22:22:55.756Z,99.90
2018-10-12T22:25:24.273Z,99.90
2018-10-12T22:27:52.829Z,99.90
2018-10-12T22:30:21.376Z,99.90
2018-10-12T22:32:49.912Z,99.90
2018-10-12T22:35:18.440Z,99.90
2018-10-12T22:37:46.990Z,99.90
2018-10-12T22:40:15.492Z,99.90
2018-10-12T22:42:44.725Z,99.90
2018-10-12T22:45:13.214Z,99.90
2018-10-12T22:47:41.747Z,99.90
2018-10-12T22:50:10.305Z,99.90
2018-10-12T22:52:38.843Z,99.90
2018-10-12T22:55:07.362Z,99.90
2018-10-12T22:57:35.851Z,99.90
2018-10-12T23:00:04.443Z,99.90
2018-10-12T23:02:32.964Z,99.90
2018-10-12T23:05:01.488Z,99.90
2018-10-12T23:07:30.035Z,99.90
2018-10-12T23:09:58.533Z,99.90
2018-10-12T23:12:27.055Z,99.90
2018-10-12T23:14:55.599Z,99.90
2018-10-12T23:17:24.118Z,99.90
2018-10-12T23:19:52.650Z,99.90
2018-10-12T23:22:21.144Z,99.90
2018-10-12T23:24:49.680Z,99.90
2018-10-12T23:27:18.203Z,99.90
2018-10-12T23:29:46.814Z,99.90
2018-10-12T23:32:15.324Z,99.90
2018-10-12T23:34:43.820Z,99.90
2018-10-12T23:37:12.340Z,99.90
2018-10-12T23:39:40.852Z,99.90
2018-10-12T23:42:09.371Z,99.90
2018-10-12T23:44:37.916Z,99.90
2018-10-12T23:47:06.596Z,99.90
2018-10-12T23:49:35.104Z,99.90
2018-10-12T23:52:03.625Z,99.90
2018-10-12T23:54:32.129Z,99.90
2018-10-12T23:57:00.652Z,99.90
2018-10-12T23:59:29.226Z,99.90
